sensor_id;sensor_type;location;lat;lon;timestamp;P1;durP1;ratioP1;P2;durP2;ratioP2
17239;SDS011;9943;54.378;18.604;2022-10-16T00:02:22;64.07;;;38.53;;
17239;SDS011;9943;54.378;18.604;2022-10-16T00:05:14;68.00;;;39.17;;
17239;SDS011;9943;54.378;18.604;2022-10-16T00:07:51;65.57;;;38.58;;
17239;SDS011;9943;54.378;18.604;2022-10-16T00:10:22;64.10;;;37.53;;
17239;SDS011;9943;54.378;18.604;2022-10-16T00:13:02;61.42;;;38.00;;
17239;SDS011;9943;54.378;18.604;2022-10-16T00:15:40;64.78;;;38.80;;
17239;SDS011;9943;54.378;18.604;2022-10-16T00:18:11;63.20;;;37.20;;
17239;SDS011;9943;54.378;18.604;2022-10-16T00:21:04;62.88;;;36.38;;
17239;SDS011;9943;54.378;18.604;2022-10-16T00:23:55;70.13;;;38.20;;
17239;SDS011;9943;54.378;18.604;2022-10-16T00:26:37;60.70;;;35.45;;
17239;SDS011;9943;54.378;18.604;2022-10-16T00:29:11;62.20;;;37.97;;
17239;SDS011;9943;54.378;18.604;2022-10-16T00:31:53;59.47;;;35.80;;
17239;SDS011;9943;54.378;18.604;2022-10-16T00:34:27;56.85;;;35.65;;
17239;SDS011;9943;54.378;18.604;2022-10-16T00:37:00;59.38;;;34.38;;
17239;SDS011;9943;54.378;18.604;2022-10-16T00:39:35;64.32;;;37.08;;
17239;SDS011;9943;54.378;18.604;2022-10-16T00:42:06;57.35;;;34.35;;
17239;SDS011;9943;54.378;18.604;2022-10-16T00:44:42;64.65;;;36.55;;
17239;SDS011;9943;54.378;18.604;2022-10-16T00:47:29;67.25;;;36.42;;
17239;SDS011;9943;54.378;18.604;2022-10-16T00:50:37;62.03;;;35.22;;
17239;SDS011;9943;54.378;18.604;2022-10-16T00:53:12;60.58;;;35.45;;
17239;SDS011;9943;54.378;18.604;2022-10-16T00:55:53;64.97;;;34.75;;
17239;SDS011;9943;54.378;18.604;2022-10-16T00:58:26;62.80;;;34.67;;
17239;SDS011;9943;54.378;18.604;2022-10-16T01:00:58;60.10;;;33.20;;
17239;SDS011;9943;54.378;18.604;2022-10-16T01:03:35;57.58;;;32.97;;
17239;SDS011;9943;54.378;18.604;2022-10-16T01:06:18;57.80;;;30.65;;
17239;SDS011;9943;54.378;18.604;2022-10-16T01:09:11;54.78;;;30.98;;
17239;SDS011;9943;54.378;18.604;2022-10-16T01:11:50;54.03;;;30.90;;
17239;SDS011;9943;54.378;18.604;2022-10-16T01:14:39;50.83;;;29.90;;
17239;SDS011;9943;54.378;18.604;2022-10-16T01:17:21;52.85;;;30.42;;
17239;SDS011;9943;54.378;18.604;2022-10-16T01:20:13;53.95;;;29.65;;
17239;SDS011;9943;54.378;18.604;2022-10-16T01:22:59;53.22;;;29.67;;
17239;SDS011;9943;54.378;18.604;2022-10-16T01:25:37;50.85;;;28.30;;
17239;SDS011;9943;54.378;18.604;2022-10-16T01:28:20;42.47;;;23.67;;
17239;SDS011;9943;54.378;18.604;2022-10-16T01:30:56;43.35;;;27.52;;
17239;SDS011;9943;54.378;18.604;2022-10-16T01:33:29;53.00;;;28.75;;
17239;SDS011;9943;54.378;18.604;2022-10-16T01:36:11;46.15;;;28.13;;
17239;SDS011;9943;54.378;18.604;2022-10-16T01:38:49;49.40;;;27.90;;
17239;SDS011;9943;54.378;18.604;2022-10-16T01:41:26;49.13;;;28.33;;
17239;SDS011;9943;54.378;18.604;2022-10-16T01:44:09;43.00;;;27.70;;
17239;SDS011;9943;54.378;18.604;2022-10-16T01:46:43;44.33;;;26.08;;
17239;SDS011;9943;54.378;18.604;2022-10-16T01:49:16;45.78;;;25.92;;
17239;SDS011;9943;54.378;18.604;2022-10-16T01:52:13;41.05;;;26.00;;
17239;SDS011;9943;54.378;18.604;2022-10-16T01:54:59;38.03;;;24.02;;
17239;SDS011;9943;54.378;18.604;2022-10-16T01:57:49;35.35;;;22.50;;
17239;SDS011;9943;54.378;18.604;2022-10-16T02:00:32;30.02;;;21.30;;
17239;SDS011;9943;54.378;18.604;2022-10-16T02:03:11;31.10;;;20.80;;
17239;SDS011;9943;54.378;18.604;2022-10-16T02:05:46;30.63;;;20.48;;
17239;SDS011;9943;54.378;18.604;2022-10-16T02:11:32;28.80;;;19.90;;
17239;SDS011;9943;54.378;18.604;2022-10-16T02:14:08;30.63;;;19.38;;
17239;SDS011;9943;54.378;18.604;2022-10-16T02:16:45;29.08;;;20.13;;
17239;SDS011;9943;54.378;18.604;2022-10-16T02:19:17;26.73;;;19.40;;
17239;SDS011;9943;54.378;18.604;2022-10-16T02:21:54;28.83;;;19.08;;
17239;SDS011;9943;54.378;18.604;2022-10-16T02:24:39;28.70;;;19.38;;
17239;SDS011;9943;54.378;18.604;2022-10-16T02:27:27;27.42;;;19.27;;
17239;SDS011;9943;54.378;18.604;2022-10-16T02:30:03;31.48;;;19.92;;
17239;SDS011;9943;54.378;18.604;2022-10-16T02:32:48;27.33;;;19.00;;
17239;SDS011;9943;54.378;18.604;2022-10-16T02:35:21;27.35;;;19.73;;
17239;SDS011;9943;54.378;18.604;2022-10-16T02:37:59;27.45;;;19.77;;
17239;SDS011;9943;54.378;18.604;2022-10-16T02:40:30;30.63;;;19.92;;
17239;SDS011;9943;54.378;18.604;2022-10-16T02:43:05;29.52;;;21.17;;
17239;SDS011;9943;54.378;18.604;2022-10-16T02:45:39;27.75;;;20.83;;
17239;SDS011;9943;54.378;18.604;2022-10-16T02:51:59;27.50;;;19.70;;
17239;SDS011;9943;54.378;18.604;2022-10-16T02:54:40;27.73;;;19.42;;
17239;SDS011;9943;54.378;18.604;2022-10-16T02:57:10;27.98;;;20.55;;
17239;SDS011;9943;54.378;18.604;2022-10-16T02:59:43;30.48;;;21.65;;
17239;SDS011;9943;54.378;18.604;2022-10-16T03:02:16;30.05;;;20.10;;
17239;SDS011;9943;54.378;18.604;2022-10-16T03:04:46;30.83;;;22.38;;
17239;SDS011;9943;54.378;18.604;2022-10-16T03:07:25;32.05;;;20.67;;
17239;SDS011;9943;54.378;18.604;2022-10-16T03:10:01;30.17;;;21.17;;
17239;SDS011;9943;54.378;18.604;2022-10-16T03:12:39;26.92;;;20.92;;
17239;SDS011;9943;54.378;18.604;2022-10-16T03:15:10;25.98;;;19.52;;
17239;SDS011;9943;54.378;18.604;2022-10-16T03:17:57;30.25;;;20.98;;
17239;SDS011;9943;54.378;18.604;2022-10-16T03:20:40;28.00;;;20.10;;
17239;SDS011;9943;54.378;18.604;2022-10-16T03:23:26;30.23;;;20.67;;
17239;SDS011;9943;54.378;18.604;2022-10-16T03:26:10;30.42;;;22.77;;
17239;SDS011;9943;54.378;18.604;2022-10-16T03:28:48;32.88;;;21.85;;
17239;SDS011;9943;54.378;18.604;2022-10-16T03:31:25;29.45;;;21.35;;
17239;SDS011;9943;54.378;18.604;2022-10-16T03:33:59;28.55;;;20.23;;
17239;SDS011;9943;54.378;18.604;2022-10-16T03:36:34;31.42;;;21.50;;
17239;SDS011;9943;54.378;18.604;2022-10-16T03:39:26;34.20;;;20.77;;
17239;SDS011;9943;54.378;18.604;2022-10-16T03:46:15;31.83;;;20.88;;
17239;SDS011;9943;54.378;18.604;2022-10-16T03:48:49;29.90;;;21.00;;
17239;SDS011;9943;54.378;18.604;2022-10-16T03:51:33;28.48;;;19.98;;
17239;SDS011;9943;54.378;18.604;2022-10-16T03:54:04;27.40;;;20.13;;
17239;SDS011;9943;54.378;18.604;2022-10-16T03:56:53;26.58;;;19.13;;
17239;SDS011;9943;54.378;18.604;2022-10-16T03:59:26;28.40;;;19.45;;
17239;SDS011;9943;54.378;18.604;2022-10-16T04:02:00;27.10;;;18.95;;
17239;SDS011;9943;54.378;18.604;2022-10-16T04:04:33;31.15;;;20.77;;
17239;SDS011;9943;54.378;18.604;2022-10-16T04:07:11;25.20;;;19.90;;
17239;SDS011;9943;54.378;18.604;2022-10-16T04:12:48;27.75;;;20.27;;
17239;SDS011;9943;54.378;18.604;2022-10-16T04:15:22;28.08;;;20.38;;
17239;SDS011;9943;54.378;18.604;2022-10-16T04:17:56;25.80;;;19.52;;
17239;SDS011;9943;54.378;18.604;2022-10-16T04:20:47;29.20;;;21.13;;
17239;SDS011;9943;54.378;18.604;2022-10-16T04:23:25;28.92;;;20.45;;
17239;SDS011;9943;54.378;18.604;2022-10-16T04:26:20;29.13;;;20.70;;
17239;SDS011;9943;54.378;18.604;2022-10-16T04:28:58;28.70;;;20.80;;
17239;SDS011;9943;54.378;18.604;2022-10-16T04:31:30;30.40;;;21.77;;
17239;SDS011;9943;54.378;18.604;2022-10-16T04:34:17;29.80;;;21.20;;
17239;SDS011;9943;54.378;18.604;2022-10-16T04:36:50;30.55;;;21.63;;
17239;SDS011;9943;54.378;18.604;2022-10-16T04:39:32;29.63;;;20.38;;
17239;SDS011;9943;54.378;18.604;2022-10-16T04:42:13;27.50;;;20.77;;
17239;SDS011;9943;54.378;18.604;2022-10-16T04:44:44;29.45;;;21.67;;
17239;SDS011;9943;54.378;18.604;2022-10-16T04:47:30;28.73;;;21.90;;
17239;SDS011;9943;54.378;18.604;2022-10-16T04:50:00;29.67;;;21.83;;
17239;SDS011;9943;54.378;18.604;2022-10-16T04:52:48;29.80;;;21.17;;
17239;SDS011;9943;54.378;18.604;2022-10-16T04:55:27;28.65;;;20.85;;
17239;SDS011;9943;54.378;18.604;2022-10-16T04:58:01;30.85;;;20.85;;
17239;SDS011;9943;54.378;18.604;2022-10-16T05:00:38;29.63;;;20.67;;
17239;SDS011;9943;54.378;18.604;2022-10-16T05:03:14;29.50;;;21.55;;
17239;SDS011;9943;54.378;18.604;2022-10-16T05:05:49;30.67;;;21.17;;
17239;SDS011;9943;54.378;18.604;2022-10-16T05:08:19;29.13;;;21.15;;
17239;SDS011;9943;54.378;18.604;2022-10-16T05:10:49;34.00;;;22.83;;
17239;SDS011;9943;54.378;18.604;2022-10-16T05:13:19;34.10;;;23.98;;
17239;SDS011;9943;54.378;18.604;2022-10-16T05:18:37;31.70;;;23.25;;
17239;SDS011;9943;54.378;18.604;2022-10-16T05:21:08;37.38;;;25.25;;
17239;SDS011;9943;54.378;18.604;2022-10-16T05:23:37;37.28;;;23.42;;
17239;SDS011;9943;54.378;18.604;2022-10-16T05:29:14;43.05;;;24.63;;
17239;SDS011;9943;54.378;18.604;2022-10-16T05:31:46;35.45;;;23.52;;
17239;SDS011;9943;54.378;18.604;2022-10-16T05:34:19;37.10;;;25.25;;
17239;SDS011;9943;54.378;18.604;2022-10-16T05:36:48;39.65;;;26.15;;
17239;SDS011;9943;54.378;18.604;2022-10-16T05:39:20;38.30;;;26.02;;
17239;SDS011;9943;54.378;18.604;2022-10-16T05:41:53;38.42;;;26.08;;
17239;SDS011;9943;54.378;18.604;2022-10-16T05:44:31;39.83;;;25.58;;
17239;SDS011;9943;54.378;18.604;2022-10-16T05:47:09;41.10;;;27.02;;
17239;SDS011;9943;54.378;18.604;2022-10-16T05:49:48;39.00;;;26.05;;
17239;SDS011;9943;54.378;18.604;2022-10-16T05:52:27;39.13;;;28.05;;
17239;SDS011;9943;54.378;18.604;2022-10-16T05:55:09;40.47;;;27.38;;
17239;SDS011;9943;54.378;18.604;2022-10-16T05:57:40;41.33;;;27.55;;
17239;SDS011;9943;54.378;18.604;2022-10-16T06:00:09;36.33;;;25.45;;
17239;SDS011;9943;54.378;18.604;2022-10-16T06:02:49;40.55;;;27.85;;
17239;SDS011;9943;54.378;18.604;2022-10-16T06:05:36;40.85;;;27.45;;
17239;SDS011;9943;54.378;18.604;2022-10-16T06:08:22;41.78;;;28.65;;
17239;SDS011;9943;54.378;18.604;2022-10-16T06:11:16;38.35;;;26.13;;
17239;SDS011;9943;54.378;18.604;2022-10-16T06:13:50;35.42;;;26.38;;
17239;SDS011;9943;54.378;18.604;2022-10-16T06:16:21;39.72;;;27.90;;
17239;SDS011;9943;54.378;18.604;2022-10-16T06:19:01;37.97;;;26.98;;
17239;SDS011;9943;54.378;18.604;2022-10-16T06:21:38;39.88;;;27.63;;
17239;SDS011;9943;54.378;18.604;2022-10-16T06:24:27;36.20;;;26.63;;
17239;SDS011;9943;54.378;18.604;2022-10-16T06:26:57;38.47;;;27.92;;
17239;SDS011;9943;54.378;18.604;2022-10-16T06:32:28;41.10;;;27.52;;
17239;SDS011;9943;54.378;18.604;2022-10-16T06:35:14;39.25;;;27.83;;
17239;SDS011;9943;54.378;18.604;2022-10-16T06:37:49;40.47;;;29.42;;
17239;SDS011;9943;54.378;18.604;2022-10-16T06:40:23;52.42;;;30.38;;
17239;SDS011;9943;54.378;18.604;2022-10-16T06:43:00;36.92;;;27.75;;
17239;SDS011;9943;54.378;18.604;2022-10-16T06:45:33;38.97;;;28.30;;
17239;SDS011;9943;54.378;18.604;2022-10-16T06:48:03;40.00;;;29.30;;
17239;SDS011;9943;54.378;18.604;2022-10-16T06:50:41;39.97;;;28.75;;
17239;SDS011;9943;54.378;18.604;2022-10-16T06:53:10;38.45;;;27.80;;
17239;SDS011;9943;54.378;18.604;2022-10-16T06:55:40;37.88;;;27.83;;
17239;SDS011;9943;54.378;18.604;2022-10-16T06:58:20;37.10;;;27.30;;
17239;SDS011;9943;54.378;18.604;2022-10-16T07:00:55;43.13;;;29.33;;
17239;SDS011;9943;54.378;18.604;2022-10-16T07:03:29;44.38;;;29.33;;
17239;SDS011;9943;54.378;18.604;2022-10-16T07:06:23;40.83;;;28.27;;
17239;SDS011;9943;54.378;18.604;2022-10-16T07:09:00;42.42;;;29.48;;
17239;SDS011;9943;54.378;18.604;2022-10-16T07:11:54;45.65;;;29.65;;
17239;SDS011;9943;54.378;18.604;2022-10-16T07:14:32;39.50;;;28.58;;
17239;SDS011;9943;54.378;18.604;2022-10-16T07:17:00;40.28;;;29.52;;
17239;SDS011;9943;54.378;18.604;2022-10-16T07:19:34;42.70;;;29.38;;
17239;SDS011;9943;54.378;18.604;2022-10-16T07:22:30;42.55;;;30.17;;
17239;SDS011;9943;54.378;18.604;2022-10-16T07:25:02;41.17;;;30.00;;
17239;SDS011;9943;54.378;18.604;2022-10-16T07:27:33;40.13;;;28.92;;
17239;SDS011;9943;54.378;18.604;2022-10-16T07:30:05;39.83;;;30.60;;
17239;SDS011;9943;54.378;18.604;2022-10-16T07:32:40;44.95;;;31.25;;
17239;SDS011;9943;54.378;18.604;2022-10-16T07:35:11;42.67;;;29.63;;
17239;SDS011;9943;54.378;18.604;2022-10-16T07:40:31;40.83;;;28.92;;
17239;SDS011;9943;54.378;18.604;2022-10-16T07:42:59;44.17;;;30.65;;
17239;SDS011;9943;54.378;18.604;2022-10-16T07:45:49;40.70;;;29.65;;
17239;SDS011;9943;54.378;18.604;2022-10-16T07:48:19;41.10;;;28.17;;
17239;SDS011;9943;54.378;18.604;2022-10-16T07:50:57;42.40;;;29.02;;
17239;SDS011;9943;54.378;18.604;2022-10-16T07:53:32;44.53;;;29.63;;
17239;SDS011;9943;54.378;18.604;2022-10-16T07:56:05;42.17;;;29.00;;
17239;SDS011;9943;54.378;18.604;2022-10-16T07:58:36;42.83;;;30.08;;
17239;SDS011;9943;54.378;18.604;2022-10-16T08:01:20;38.38;;;28.25;;
17239;SDS011;9943;54.378;18.604;2022-10-16T08:04:20;40.42;;;29.05;;
17239;SDS011;9943;54.378;18.604;2022-10-16T08:06:52;36.63;;;27.27;;
17239;SDS011;9943;54.378;18.604;2022-10-16T08:09:31;38.50;;;28.08;;
17239;SDS011;9943;54.378;18.604;2022-10-16T08:12:11;38.55;;;29.50;;
17239;SDS011;9943;54.378;18.604;2022-10-16T08:14:56;39.33;;;29.33;;
17239;SDS011;9943;54.378;18.604;2022-10-16T08:17:37;35.08;;;27.15;;
17239;SDS011;9943;54.378;18.604;2022-10-16T08:20:24;37.75;;;28.05;;
17239;SDS011;9943;54.378;18.604;2022-10-16T08:23:05;39.55;;;28.05;;
17239;SDS011;9943;54.378;18.604;2022-10-16T08:25:41;37.72;;;25.60;;
17239;SDS011;9943;54.378;18.604;2022-10-16T08:28:14;37.17;;;26.58;;
17239;SDS011;9943;54.378;18.604;2022-10-16T08:30:48;40.03;;;26.23;;
17239;SDS011;9943;54.378;18.604;2022-10-16T08:33:28;34.72;;;25.48;;
17239;SDS011;9943;54.378;18.604;2022-10-16T08:36:05;36.58;;;26.27;;
17239;SDS011;9943;54.378;18.604;2022-10-16T08:38:43;33.60;;;25.83;;
17239;SDS011;9943;54.378;18.604;2022-10-16T08:48:13;38.83;;;26.48;;
17239;SDS011;9943;54.378;18.604;2022-10-16T08:50:54;35.15;;;26.50;;
17239;SDS011;9943;54.378;18.604;2022-10-16T08:53:26;37.08;;;27.25;;
17239;SDS011;9943;54.378;18.604;2022-10-16T08:56:33;32.70;;;25.08;;
17239;SDS011;9943;54.378;18.604;2022-10-16T08:59:06;34.35;;;24.00;;
17239;SDS011;9943;54.378;18.604;2022-10-16T09:01:40;30.73;;;23.40;;
17239;SDS011;9943;54.378;18.604;2022-10-16T09:07:17;33.47;;;24.00;;
17239;SDS011;9943;54.378;18.604;2022-10-16T09:10:09;35.75;;;25.15;;
17239;SDS011;9943;54.378;18.604;2022-10-16T09:12:51;31.25;;;23.42;;
17239;SDS011;9943;54.378;18.604;2022-10-16T09:15:31;27.85;;;20.58;;
17239;SDS011;9943;54.378;18.604;2022-10-16T09:18:10;30.75;;;23.45;;
17239;SDS011;9943;54.378;18.604;2022-10-16T09:20:51;29.58;;;22.33;;
17239;SDS011;9943;54.378;18.604;2022-10-16T09:23:38;26.70;;;20.55;;
17239;SDS011;9943;54.378;18.604;2022-10-16T09:26:17;32.80;;;23.20;;
17239;SDS011;9943;54.378;18.604;2022-10-16T09:29:18;27.90;;;21.95;;
17239;SDS011;9943;54.378;18.604;2022-10-16T09:31:55;30.13;;;22.77;;
17239;SDS011;9943;54.378;18.604;2022-10-16T09:34:45;32.85;;;23.40;;
17239;SDS011;9943;54.378;18.604;2022-10-16T09:37:21;29.42;;;22.38;;
17239;SDS011;9943;54.378;18.604;2022-10-16T09:44:15;28.25;;;21.95;;
17239;SDS011;9943;54.378;18.604;2022-10-16T09:47:03;29.33;;;20.75;;
17239;SDS011;9943;54.378;18.604;2022-10-16T09:49:37;27.88;;;22.05;;
17239;SDS011;9943;54.378;18.604;2022-10-16T09:52:17;28.95;;;21.75;;
17239;SDS011;9943;54.378;18.604;2022-10-16T09:55:12;26.13;;;20.50;;
17239;SDS011;9943;54.378;18.604;2022-10-16T09:57:59;29.25;;;20.48;;
17239;SDS011;9943;54.378;18.604;2022-10-16T10:00:33;27.95;;;22.00;;
17239;SDS011;9943;54.378;18.604;2022-10-16T10:03:35;29.63;;;22.13;;
17239;SDS011;9943;54.378;18.604;2022-10-16T10:06:20;27.38;;;20.90;;
17239;SDS011;9943;54.378;18.604;2022-10-16T10:09:04;27.10;;;21.13;;
17239;SDS011;9943;54.378;18.604;2022-10-16T10:11:47;26.75;;;20.73;;
17239;SDS011;9943;54.378;18.604;2022-10-16T10:14:31;28.35;;;20.73;;
17239;SDS011;9943;54.378;18.604;2022-10-16T10:17:15;27.90;;;21.35;;
17239;SDS011;9943;54.378;18.604;2022-10-16T10:19:57;25.83;;;20.27;;
17239;SDS011;9943;54.378;18.604;2022-10-16T10:22:39;25.45;;;19.65;;
17239;SDS011;9943;54.378;18.604;2022-10-16T10:28:18;28.58;;;20.88;;
17239;SDS011;9943;54.378;18.604;2022-10-16T10:31:12;29.63;;;21.45;;
17239;SDS011;9943;54.378;18.604;2022-10-16T10:33:48;25.55;;;19.92;;
17239;SDS011;9943;54.378;18.604;2022-10-16T10:36:35;28.33;;;20.98;;
17239;SDS011;9943;54.378;18.604;2022-10-16T10:39:08;30.42;;;20.20;;
17239;SDS011;9943;54.378;18.604;2022-10-16T10:42:00;40.58;;;22.17;;
17239;SDS011;9943;54.378;18.604;2022-10-16T10:44:59;27.35;;;21.15;;
17239;SDS011;9943;54.378;18.604;2022-10-16T10:48:04;29.40;;;20.40;;
17239;SDS011;9943;54.378;18.604;2022-10-16T10:50:51;25.83;;;20.17;;
17239;SDS011;9943;54.378;18.604;2022-10-16T10:53:29;26.75;;;20.38;;
17239;SDS011;9943;54.378;18.604;2022-10-16T10:56:20;28.95;;;20.50;;
17239;SDS011;9943;54.378;18.604;2022-10-16T11:03:05;23.58;;;19.00;;
17239;SDS011;9943;54.378;18.604;2022-10-16T11:05:48;22.75;;;18.20;;
17239;SDS011;9943;54.378;18.604;2022-10-16T11:08:27;23.27;;;17.77;;
17239;SDS011;9943;54.378;18.604;2022-10-16T11:11:02;25.65;;;18.63;;
17239;SDS011;9943;54.378;18.604;2022-10-16T11:13:38;21.80;;;18.33;;
17239;SDS011;9943;54.378;18.604;2022-10-16T11:16:23;23.17;;;18.52;;
17239;SDS011;9943;54.378;18.604;2022-10-16T11:19:16;22.17;;;17.52;;
17239;SDS011;9943;54.378;18.604;2022-10-16T11:22:09;21.02;;;17.90;;
17239;SDS011;9943;54.378;18.604;2022-10-16T11:24:49;22.40;;;17.15;;
17239;SDS011;9943;54.378;18.604;2022-10-16T11:27:38;18.98;;;16.70;;
17239;SDS011;9943;54.378;18.604;2022-10-16T11:30:24;19.05;;;16.38;;
17239;SDS011;9943;54.378;18.604;2022-10-16T11:33:02;17.45;;;15.65;;
17239;SDS011;9943;54.378;18.604;2022-10-16T11:36:35;19.27;;;16.08;;
17239;SDS011;9943;54.378;18.604;2022-10-16T11:39:20;17.85;;;15.95;;
17239;SDS011;9943;54.378;18.604;2022-10-16T11:41:59;18.48;;;15.27;;
17239;SDS011;9943;54.378;18.604;2022-10-16T11:44:44;18.10;;;15.48;;
17239;SDS011;9943;54.378;18.604;2022-10-16T11:47:28;18.15;;;15.27;;
17239;SDS011;9943;54.378;18.604;2022-10-16T11:50:22;18.45;;;15.25;;
17239;SDS011;9943;54.378;18.604;2022-10-16T11:56:36;16.30;;;13.68;;
17239;SDS011;9943;54.378;18.604;2022-10-16T11:59:17;17.52;;;14.45;;
17239;SDS011;9943;54.378;18.604;2022-10-16T12:01:58;17.70;;;14.70;;
17239;SDS011;9943;54.378;18.604;2022-10-16T12:04:47;15.27;;;13.68;;
17239;SDS011;9943;54.378;18.604;2022-10-16T12:07:26;15.05;;;13.35;;
17239;SDS011;9943;54.378;18.604;2022-10-16T12:10:18;15.10;;;13.50;;
17239;SDS011;9943;54.378;18.604;2022-10-16T12:13:00;14.80;;;13.02;;
17239;SDS011;9943;54.378;18.604;2022-10-16T12:15:31;14.60;;;12.88;;
17239;SDS011;9943;54.378;18.604;2022-10-16T12:21:19;15.90;;;13.43;;
17239;SDS011;9943;54.378;18.604;2022-10-16T12:24:06;12.90;;;11.18;;
17239;SDS011;9943;54.378;18.604;2022-10-16T12:27:38;12.95;;;11.30;;
17239;SDS011;9943;54.378;18.604;2022-10-16T12:30:20;13.85;;;11.70;;
17239;SDS011;9943;54.378;18.604;2022-10-16T12:33:05;12.30;;;11.10;;
17239;SDS011;9943;54.378;18.604;2022-10-16T12:36:02;11.85;;;10.13;;
17239;SDS011;9943;54.378;18.604;2022-10-16T12:38:46;12.00;;;9.70;;
17239;SDS011;9943;54.378;18.604;2022-10-16T12:41:28;11.05;;;9.95;;
17239;SDS011;9943;54.378;18.604;2022-10-16T12:44:21;12.02;;;10.15;;
17239;SDS011;9943;54.378;18.604;2022-10-16T12:47:18;11.52;;;9.93;;
17239;SDS011;9943;54.378;18.604;2022-10-16T12:50:00;12.80;;;9.40;;
17239;SDS011;9943;54.378;18.604;2022-10-16T12:52:45;10.32;;;7.97;;
17239;SDS011;9943;54.378;18.604;2022-10-16T12:55:26;9.25;;;7.90;;
17239;SDS011;9943;54.378;18.604;2022-10-16T12:58:06;9.93;;;8.35;;
17239;SDS011;9943;54.378;18.604;2022-10-16T13:00:43;8.88;;;8.00;;
17239;SDS011;9943;54.378;18.604;2022-10-16T13:07:24;9.80;;;7.40;;
17239;SDS011;9943;54.378;18.604;2022-10-16T13:10:14;7.57;;;6.88;;
17239;SDS011;9943;54.378;18.604;2022-10-16T13:12:56;8.32;;;7.18;;
17239;SDS011;9943;54.378;18.604;2022-10-16T13:15:40;8.15;;;7.28;;
17239;SDS011;9943;54.378;18.604;2022-10-16T13:18:27;66.07;;;38.00;;
17239;SDS011;9943;54.378;18.604;2022-10-16T13:21:17;6.93;;;6.22;;
17239;SDS011;9943;54.378;18.604;2022-10-16T13:34:44;6.43;;;5.35;;
17239;SDS011;9943;54.378;18.604;2022-10-16T13:37:23;6.32;;;5.32;;
17239;SDS011;9943;54.378;18.604;2022-10-16T13:40:09;6.18;;;5.57;;
17239;SDS011;9943;54.378;18.604;2022-10-16T13:46:14;5.88;;;5.38;;
17239;SDS011;9943;54.378;18.604;2022-10-16T13:48:56;6.78;;;6.07;;
17239;SDS011;9943;54.378;18.604;2022-10-16T13:51:35;6.45;;;5.85;;
17239;SDS011;9943;54.378;18.604;2022-10-16T13:54:08;7.10;;;6.20;;
17239;SDS011;9943;54.378;18.604;2022-10-16T13:57:07;9.13;;;7.65;;
17239;SDS011;9943;54.378;18.604;2022-10-16T13:59:41;7.88;;;6.28;;
17239;SDS011;9943;54.378;18.604;2022-10-16T14:02:29;10.43;;;6.88;;
17239;SDS011;9943;54.378;18.604;2022-10-16T14:05:11;9.27;;;7.03;;
17239;SDS011;9943;54.378;18.604;2022-10-16T14:07:50;7.40;;;6.78;;
17239;SDS011;9943;54.378;18.604;2022-10-16T14:10:24;7.78;;;7.05;;
17239;SDS011;9943;54.378;18.604;2022-10-16T14:12:58;7.78;;;7.00;;
17239;SDS011;9943;54.378;18.604;2022-10-16T14:15:46;11.20;;;6.95;;
17239;SDS011;9943;54.378;18.604;2022-10-16T14:18:25;9.00;;;8.13;;
17239;SDS011;9943;54.378;18.604;2022-10-16T14:21:03;9.07;;;7.82;;
17239;SDS011;9943;54.378;18.604;2022-10-16T14:23:35;9.15;;;8.07;;
17239;SDS011;9943;54.378;18.604;2022-10-16T14:26:17;8.68;;;7.78;;
17239;SDS011;9943;54.378;18.604;2022-10-16T14:29:08;8.75;;;7.85;;
17239;SDS011;9943;54.378;18.604;2022-10-16T14:31:55;8.65;;;7.75;;
17239;SDS011;9943;54.378;18.604;2022-10-16T14:37:36;8.70;;;7.90;;
17239;SDS011;9943;54.378;18.604;2022-10-16T14:40:11;9.50;;;8.60;;
17239;SDS011;9943;54.378;18.604;2022-10-16T14:42:53;8.20;;;7.40;;
17239;SDS011;9943;54.378;18.604;2022-10-16T14:45:29;9.20;;;8.32;;
17239;SDS011;9943;54.378;18.604;2022-10-16T14:48:06;8.95;;;8.05;;
17239;SDS011;9943;54.378;18.604;2022-10-16T14:50:51;10.18;;;8.65;;
17239;SDS011;9943;54.378;18.604;2022-10-16T14:53:27;8.73;;;7.55;;
17239;SDS011;9943;54.378;18.604;2022-10-16T14:56:05;8.85;;;8.00;;
17239;SDS011;9943;54.378;18.604;2022-10-16T15:01:50;8.77;;;7.88;;
17239;SDS011;9943;54.378;18.604;2022-10-16T15:04:23;11.65;;;8.27;;
17239;SDS011;9943;54.378;18.604;2022-10-16T15:06:56;9.38;;;8.27;;
17239;SDS011;9943;54.378;18.604;2022-10-16T15:09:38;11.60;;;9.43;;
17239;SDS011;9943;54.378;18.604;2022-10-16T15:12:14;9.50;;;8.50;;
17239;SDS011;9943;54.378;18.604;2022-10-16T15:14:46;11.13;;;9.07;;
17239;SDS011;9943;54.378;18.604;2022-10-16T15:17:20;15.15;;;9.40;;
17239;SDS011;9943;54.378;18.604;2022-10-16T15:19:56;13.15;;;10.10;;
17239;SDS011;9943;54.378;18.604;2022-10-16T15:22:46;12.15;;;10.30;;
17239;SDS011;9943;54.378;18.604;2022-10-16T15:25:41;15.05;;;11.38;;
17239;SDS011;9943;54.378;18.604;2022-10-16T15:28:15;12.63;;;10.93;;
17239;SDS011;9943;54.378;18.604;2022-10-16T15:30:56;15.02;;;10.88;;
17239;SDS011;9943;54.378;18.604;2022-10-16T15:33:32;14.52;;;11.60;;
17239;SDS011;9943;54.378;18.604;2022-10-16T15:36:09;17.38;;;11.95;;
17239;SDS011;9943;54.378;18.604;2022-10-16T15:39:03;14.38;;;12.40;;
17239;SDS011;9943;54.378;18.604;2022-10-16T15:44:35;13.18;;;11.65;;
17239;SDS011;9943;54.378;18.604;2022-10-16T15:47:12;12.43;;;11.13;;
17239;SDS011;9943;54.378;18.604;2022-10-16T15:49:45;14.63;;;11.80;;
17239;SDS011;9943;54.378;18.604;2022-10-16T15:52:23;12.80;;;11.30;;
17239;SDS011;9943;54.378;18.604;2022-10-16T15:55:10;12.35;;;10.77;;
17239;SDS011;9943;54.378;18.604;2022-10-16T16:03:53;13.35;;;11.75;;
17239;SDS011;9943;54.378;18.604;2022-10-16T16:06:25;12.05;;;10.70;;
17239;SDS011;9943;54.378;18.604;2022-10-16T16:08:57;12.70;;;11.35;;
17239;SDS011;9943;54.378;18.604;2022-10-16T16:11:48;13.45;;;11.18;;
17239;SDS011;9943;54.378;18.604;2022-10-16T16:17:36;12.80;;;11.27;;
17239;SDS011;9943;54.378;18.604;2022-10-16T16:20:20;13.27;;;11.35;;
17239;SDS011;9943;54.378;18.604;2022-10-16T16:22:58;13.23;;;11.95;;
17239;SDS011;9943;54.378;18.604;2022-10-16T16:25:43;14.45;;;13.00;;
17239;SDS011;9943;54.378;18.604;2022-10-16T16:28:14;16.30;;;14.30;;
17239;SDS011;9943;54.378;18.604;2022-10-16T16:30:58;15.63;;;13.65;;
17239;SDS011;9943;54.378;18.604;2022-10-16T16:33:47;20.08;;;14.25;;
17239;SDS011;9943;54.378;18.604;2022-10-16T16:36:31;15.50;;;13.15;;
17239;SDS011;9943;54.378;18.604;2022-10-16T16:39:01;17.00;;;13.77;;
17239;SDS011;9943;54.378;18.604;2022-10-16T16:41:45;15.95;;;14.27;;
17239;SDS011;9943;54.378;18.604;2022-10-16T16:44:21;14.60;;;13.05;;
17239;SDS011;9943;54.378;18.604;2022-10-16T16:47:00;14.73;;;13.15;;
17239;SDS011;9943;54.378;18.604;2022-10-16T16:49:33;17.00;;;14.55;;
17239;SDS011;9943;54.378;18.604;2022-10-16T16:52:24;15.57;;;12.73;;
17239;SDS011;9943;54.378;18.604;2022-10-16T16:55:16;19.10;;;14.35;;
17239;SDS011;9943;54.378;18.604;2022-10-16T16:58:15;15.88;;;14.27;;
17239;SDS011;9943;54.378;18.604;2022-10-16T17:00:59;20.58;;;14.07;;
17239;SDS011;9943;54.378;18.604;2022-10-16T17:03:50;15.43;;;13.82;;
17239;SDS011;9943;54.378;18.604;2022-10-16T17:06:33;19.48;;;14.25;;
17239;SDS011;9943;54.378;18.604;2022-10-16T17:09:05;15.30;;;13.60;;
17239;SDS011;9943;54.378;18.604;2022-10-16T17:11:42;17.88;;;15.13;;